Flight Track Log - Related Links

Times and Time Zones

All times are in EDT time to prevent confusion due to time zone crossing. See the SWA1464 flight status page for this flight to view local times or setup timezone preferences in your user account.

Time Position Orientation Groundspeed Altitude Reporting Facility
EDT Latitude Longitude Course Direction KTS MPH feet Rate Location/Type
Fri 10:19:02 AM 35.2894 -81.0389 311° West 267 307 4,800  Level Atlanta Center
Fri 10:20:03 AM 35.2769 -81.1308 261° West 303 349 7,900 2,262 Climbing Atlanta Center
Fri 10:21:04 AM 35.2375 -81.2264 243° Southwest 302 348 9,400 2,190 Climbing Atlanta Center
Fri 10:22:20 AM 35.1669 -81.3356 232° Southwest 340 391 12,900 3,000 Climbing Atlanta Center
Fri 10:23:20 AM 35.1022 -81.4342 231° Southwest 364 419 16,200 3,100 Climbing Atlanta Center
Fri 10:24:20 AM 35.0375 -81.5350 232° Southwest 377 434 19,100 2,850 Climbing Atlanta Center
Fri 10:25:20 AM 34.9794 -81.6483 238° Southwest 390 449 21,900 1,950 Climbing Atlanta Center
Fri 10:26:20 AM 34.9419 -81.7633 248° West 397 457 23,000 950 Climbing Atlanta Center
Fri 10:27:20 AM 34.8900 -81.8889 243° Southwest 410 472 23,800 1,500 Climbing Atlanta Center
Fri 10:28:20 AM 34.8169 -82.0097 234° Southwest 416 479 26,000 2,200 Climbing Atlanta Center
Fri 10:29:20 AM 34.7500 -82.1300 236° Southwest 423 487 28,200 2,050 Climbing Atlanta Center
Fri 10:30:20 AM 34.6808 -82.2528 236° Southwest 435 501 30,100 1,900 Climbing Atlanta Center
Fri 10:31:20 AM 34.6094 -82.3706 234° Southwest 435 501 32,000 950 Climbing Atlanta Center
Fri 10:32:20 AM 34.5400 -82.4956 236° Southwest 440 506 32,000 850 Level Atlanta Center
Fri 10:33:20 AM 34.4725 -82.6025 233° Southwest 445 512 33,700 1,000 Climbing Atlanta Center
Fri 10:34:20 AM 34.4069 -82.7219 236° Southwest 445 512 34,000 150 Climbing Atlanta Center
Fri 10:35:20 AM 34.3414 -82.8414 236° Southwest 439 505 34,000 400 Level Atlanta Center
Fri 10:36:20 AM 34.2653 -82.9581 232° Southwest 439 505 34,800 1,150 Climbing Atlanta Center
Fri 10:37:20 AM 34.2017 -83.0769 237° Southwest 434 499 36,300 1,450 Climbing Atlanta Center
Fri 10:38:20 AM 34.1253 -83.2058 234° Southwest 434 499 37,700 1,200 Climbing Atlanta Center
Fri 10:39:20 AM 34.0553 -83.3267 235° Southwest 434 499 38,700 1,050 Climbing Atlanta Center
Fri 10:40:20 AM 33.9869 -83.4425 235° Southwest 434 499 39,800 650 Climbing Atlanta Center
Fri 10:41:20 AM 33.9144 -83.5608 234° Southwest 434 499 40,000 100 Climbing Atlanta Center
Fri 10:42:20 AM 33.8481 -83.6836 237° Southwest 434 499 40,000  Level Atlanta Center
Fri 10:43:20 AM 33.8044 -83.8164 248° West 434 499 40,000  Level Atlanta Center
Fri 10:44:20 AM 33.7672 -83.9564 252° West 434 499 40,000  Level Atlanta Center
Fri 10:45:20 AM 33.7253 -84.0936 250° West 441 507 40,000  Level Atlanta Center
Fri 10:46:20 AM 33.6878 -84.2336 252° West 446 513 40,000  Level Atlanta Center
Fri 10:47:20 AM 33.6456 -84.3731 250° West 446 513 40,000  Level Atlanta Center
Fri 10:48:20 AM 33.6181 -84.5103 257° West 436 502 40,000  Level Atlanta Center
Fri 10:49:20 AM 33.5944 -84.6597 259° West 443 510 40,000  Level Atlanta Center
Fri 10:50:20 AM 33.5728 -84.8017 260° West 443 510 40,000  Level Atlanta Center
Fri 10:51:20 AM 33.5531 -84.9411 260° West 443 510 40,000  Level Atlanta Center
Fri 10:52:20 AM 33.5331 -85.0831 260° West 443 510 40,000  Level Atlanta Center
Fri 10:53:20 AM 33.5108 -85.2247 259° West 436 502 40,000  Level Atlanta Center
Fri 10:54:20 AM 33.4886 -85.3639 259° West 430 495 40,000  Level Atlanta Center
Fri 10:55:20 AM 33.4661 -85.5056 259° West 430 495 40,000  Level Atlanta Center
Fri 10:56:20 AM 33.4478 -85.6372 261° West 435 501 40,000  Level Atlanta Center
Fri 10:57:20 AM 33.4272 -85.7811 260° West 440 506 40,000  Level Atlanta Center
Fri 10:58:20 AM 33.4022 -85.9200 258° West 440 506 40,000  Level Atlanta Center
Fri 10:59:20 AM 33.3789 -86.0661 259° West 446 513 40,000  Level Atlanta Center
Fri 11:00:20 AM 33.3514 -86.2122 257° West 431 496 40,000  Level Atlanta Center
Fri 11:01:20 AM 33.3281 -86.3508 259° West 431 496 40,000  Level Atlanta Center
Fri 11:02:20 AM 33.3064 -86.4919 260° West 431 496 40,000  Level Atlanta Center
Fri 11:03:20 AM 33.2828 -86.6281 258° West 431 496 40,000  Level Atlanta Center
Fri 11:04:20 AM 33.2611 -86.7664 259° West 431 496 40,000  Level Atlanta Center
Fri 11:05:20 AM 33.2369 -86.9072 258° West 431 496 40,000  Level Atlanta Center
Fri 11:06:20 AM 33.2006 -87.0378 252° West 431 496 40,000  Level Atlanta Center
Fri 11:07:20 AM 33.1556 -87.1703 248° West 424 488 40,000  Level Atlanta Center
Fri 11:08:20 AM 33.1122 -87.3025 249° West 424 488 40,000  Level Atlanta Center
Fri 11:10:31 AM 33.0167 -87.5875 248° West 428 493 40,000  Level Memphis Center
Fri 11:11:31 AM 32.9739 -87.7225 249° West 428 493 40,000  Level Memphis Center
Fri 11:12:31 AM 32.9264 -87.8525 247° West 428 493 40,000  Level Memphis Center
Fri 11:13:31 AM 32.8953 -87.9747 253° West 433 498 40,000  Level Memphis Center
Fri 11:14:31 AM 32.8478 -88.1044 246° West 433 498 40,000  Level Memphis Center
Fri 11:15:31 AM 32.8042 -88.2342 248° West 433 498 40,000  Level Memphis Center
Fri 11:16:31 AM 32.7603 -88.3661 248° West 433 498 40,000  Level Memphis Center
Fri 11:17:31 AM 32.7164 -88.4956 248° West 433 498 40,000  Level Memphis Center
Fri 11:18:31 AM 32.6683 -88.6322 247° West 438 504 40,000  Level Memphis Center
Fri 11:19:31 AM 32.6219 -88.7639 247° West 438 504 40,000  Level Memphis Center
Fri 11:20:31 AM 32.5756 -88.8978 248° West 438 504 40,000  Level Memphis Center
Fri 11:21:31 AM 32.5269 -89.0342 247° West 443 510 40,000  Level Memphis Center
Fri 11:22:31 AM 32.4803 -89.1678 248° West 443 510 40,000  Level Memphis Center
Fri 11:23:31 AM 32.4314 -89.3039 247° West 443 510 40,000  Level Memphis Center
Fri 11:24:31 AM 32.3844 -89.4397 248° West 443 510 40,000  Level Memphis Center
Fri 11:25:31 AM 32.3353 -89.5756 247° West 443 510 40,000  Level Memphis Center
Fri 11:26:31 AM 32.2881 -89.7111 248° West 443 510 40,000  Level Memphis Center
Fri 11:27:31 AM 32.2408 -89.8464 248° West 443 510 40,000  Level Memphis Center
Fri 11:28:31 AM 32.1933 -89.9842 248° West 448 516 40,000  Level Memphis Center
Fri 11:29:31 AM 32.1414 -90.1194 246° West 453 521 40,000  Level Memphis Center
Fri 11:30:31 AM 32.0936 -90.2544 247° West 453 521 40,000  Level Memphis Center
Fri 11:31:48 AM 32.0339 -90.4214 247° West 449 517 40,000  Level Houston Center
Fri 11:32:50 AM 31.9864 -90.5544 247° West 442 509 40,000  Level Houston Center
Fri 11:33:52 AM 31.9283 -90.7122 247° West 445 512 40,000  Level Houston Center
Fri 11:34:55 AM 31.8794 -90.8478 247° West 444 511 40,000  Level Houston Center
Fri 11:35:57 AM 31.8303 -90.9800 246° West 442 509 40,000  Level Houston Center
Fri 11:36:59 AM 31.7822 -91.1103 247° West 438 504 40,000  Level Houston Center
Fri 11:38:01 AM 31.7331 -91.2414 246° West 436 502 40,000  Level Houston Center
Fri 11:39:03 AM 31.6761 -91.3983 247° West 436 502 40,000  Level Houston Center
Fri 11:40:05 AM 31.6261 -91.5294 246° West 437 503 40,000  Level Houston Center
Fri 11:41:07 AM 31.5778 -91.6608 247° West 438 504 40,000  Level Houston Center
Fri 11:42:09 AM 31.5272 -91.7925 246° West 442 509 40,000  Level Houston Center
Fri 11:43:11 AM 31.4781 -91.9233 246° West 440 506 40,000  Level Houston Center
Fri 11:44:14 AM 31.4244 -92.0603 245° Southwest 438 504 40,000  Level Houston Center
Fri 11:45:16 AM 31.3739 -92.1908 246° West 439 505 40,000  Level Houston Center
Fri 11:46:18 AM 31.3242 -92.3208 246° West 442 509 40,000  Level Houston Center
Fri 11:47:20 AM 31.2644 -92.4819 247° West 450 518 40,000  Level Houston Center
Fri 11:48:22 AM 31.2164 -92.6114 247° West 445 512 40,000  Level Houston Center
Fri 11:49:24 AM 31.1683 -92.7403 246° West 438 504 40,000  Level Houston Center
Fri 11:50:26 AM 31.1194 -92.8728 247° West 436 502 40,000  Level Houston Center
Fri 11:51:28 AM 31.0706 -93.0000 246° West 440 506 40,000  Level Houston Center
Fri 11:52:30 AM 31.0128 -93.1594 247° West 446 513 40,000  Level Houston Center
Fri 11:53:33 AM 30.9622 -93.2919 246° West 450 518 40,000  Level Houston Center
Fri 11:54:35 AM 30.9142 -93.4256 247° West 451 519 40,000 -387 Level Houston Center
Fri 11:55:37 AM 30.8639 -93.5586 246° West 453 521 39,200 -1,306 Descending Houston Center
Fri 11:56:39 AM 30.8136 -93.6889 246° West 447 514 37,300 -2,758 Descending Houston Center
Fri 11:57:41 AM 30.7539 -93.8478 246° West 452 520 33,500 -3,581 Descending Houston Center
Fri 11:58:43 AM 30.7025 -93.9806 246° West 455 524 29,900 -3,000 Descending Houston Center
Fri 11:59:45 AM 30.6517 -94.1142 246° West 455 524 27,300 -2,661 Descending Houston Center
Fri 12:00:47 PM 30.6028 -94.2425 246° West 440 506 24,400 -2,613 Descending Houston Center
Fri 12:01:49 PM 30.5531 -94.3686 245° Southwest 432 497 21,900 -2,544 Descending Houston Center
Fri 12:02:52 PM 30.4994 -94.5069 246° West 414 476 19,100 -2,496 Descending Houston Center
Fri 12:03:54 PM 30.4328 -94.6144 234° Southwest 395 455 16,700 -1,935 Descending Houston Center
Fri 12:04:56 PM 30.3700 -94.7125 233° Southwest 382 440 15,100 -1,742 Descending Houston Center
Fri 12:05:58 PM 30.3108 -94.8039 233° Southwest 361 415 13,100 -1,161 Descending Houston Center
Fri 12:07:00 PM 30.2544 -94.8917 233° Southwest 343 395 12,700 -871 Descending Houston Center
Fri 12:08:02 PM 30.1925 -94.9867 233° Southwest 310 357 11,300 -1,306 Descending Houston Center
Fri 12:09:04 PM 30.1419 -95.0617 232° Southwest 299 344 10,000 -629 Descending Houston Center
Fri 12:10:06 PM 30.0697 -95.1006 205° Southwest 291 335 10,000 -541 Level Houston Center
Fri 12:11:17 PM 29.9764 -95.1392 200° South 269 310 8,800 -823 Descending Houston Center
Fri 12:12:10 PM 29.9269 -95.1603 200° South 270 311 8,300 -678 Descending Houston Center
Fri 12:13:12 PM 29.8536 -95.1922 201° Southwest 241 277 7,500 -816 Descending Houston Center
Fri 12:14:15 PM 29.7922 -95.2189 201° Southwest 237 273 6,600 -720 Descending Houston Center
Fri 12:15:17 PM 29.7328 -95.2442 200° South 233 268 6,000 -281 Descending Houston Center
Fri 12:16:23 PM 29.6614 -95.2764 201° Southwest 229 264 6,000  Level Houston Center
Fri 12:17:21 PM 29.6417 -95.3269 246° West 231 266 6,000  Level Houston Center
Fri 12:18:23 PM 29.6231 -95.4067 255° West 249 287 6,000 -290 Level Houston Center
Fri 12:19:25 PM 29.6625 -95.4689 306° West 241 277 5,400 -1,059 Descending Houston Center
Fri 12:20:22 PM 29.7244 -95.4828 349° North 240 276 3,900 -1,561 Descending Houston Center
Fri 12:21:28 PM 29.7564 -95.4189 60° Northeast 223 257 2,200 -891 Descending Houston Center
Fri 12:22:30 PM 29.7208 -95.3725 131° Southeast 169 194 2,000 -381 Descending Houston Center
Fri 12:23:34 PM 29.6975 -95.3403 130° Southeast 178 205 1,400 -689 Descending Houston Center
Fri 12:24:32 PM 29.6661 -95.3047 135° Southeast 135 155 600 -629 Descending Houston Center
Fri 12:25:38 PM 29.6425 -95.2764 134° Southeast 144 166 100 -455 Descending Houston Center

Login

Don't have an account? Register now (free) for customized features, flight alerts, and more!